createdAt,value
2023-04-15T00:01:45.218Z,74.64
2023-04-15T00:04:13.209Z,74.56
2023-04-15T00:06:41.112Z,74.62
2023-04-15T00:09:09.000Z,74.76
2023-04-15T00:11:36.753Z,74.66
2023-04-15T00:14:04.653Z,74.57
2023-04-15T00:16:32.606Z,74.63
2023-04-15T00:19:00.666Z,74.77
2023-04-15T00:21:29.167Z,74.70
2023-04-15T00:23:56.940Z,74.81
2023-04-15T00:26:24.655Z,75.12
2023-04-15T00:28:52.400Z,75.39
2023-04-15T00:31:21.020Z,75.49
2023-04-15T00:33:49.069Z,75.51
2023-04-15T00:36:16.917Z,75.68
2023-04-15T00:38:44.716Z,75.79
2023-04-15T00:41:13.074Z,75.68
2023-04-15T00:43:41.123Z,76.02
2023-04-15T00:46:10.767Z,76.23
2023-04-15T00:48:39.314Z,76.54
2023-04-15T00:51:07.754Z,76.53
2023-04-15T00:53:35.871Z,76.76
2023-04-15T00:56:03.942Z,77.18
2023-04-15T00:58:32.038Z,77.42
2023-04-15T01:01:00.297Z,77.61
2023-04-15T01:03:29.798Z,77.75
2023-04-15T01:05:58.863Z,78.09
2023-04-15T01:08:29.918Z,78.28
2023-04-15T01:10:59.362Z,78.47
2023-04-15T01:13:28.023Z,79.01
2023-04-15T01:15:57.967Z,79.92
2023-04-15T01:18:26.194Z,80.21
2023-04-15T01:20:54.286Z,80.17
2023-04-15T01:23:23.364Z,80.77
2023-04-15T01:25:53.643Z,80.97
2023-04-15T01:28:21.464Z,81.32
2023-04-15T01:30:49.319Z,81.85
2023-04-15T01:33:17.181Z,81.86
2023-04-15T01:35:45.043Z,82.23
2023-04-15T01:38:13.731Z,82.31
2023-04-15T01:40:41.490Z,82.53
2023-04-15T01:43:09.563Z,82.66
2023-04-15T01:45:37.740Z,82.77
2023-04-15T01:48:05.980Z,82.85
2023-04-15T01:50:34.162Z,82.97
2023-04-15T01:53:02.326Z,83.42
2023-04-15T01:55:31.144Z,83.56
2023-04-15T01:57:58.909Z,83.90
2023-04-15T02:00:26.884Z,84.04
2023-04-15T02:02:54.800Z,84.31
2023-04-15T02:05:22.811Z,84.79
2023-04-15T02:07:50.626Z,85.10
2023-04-15T02:10:18.545Z,85.29
2023-04-15T02:12:46.752Z,85.56
2023-04-15T02:15:14.682Z,85.96
2023-04-15T02:17:46.001Z,86.23
2023-04-15T02:20:13.896Z,86.63
2023-04-15T02:22:41.766Z,86.80
2023-04-15T02:25:10.450Z,87.05
2023-04-15T02:27:38.325Z,87.02
2023-04-15T02:30:07.491Z,87.13
2023-04-15T02:32:35.553Z,87.33
2023-04-15T02:35:05.802Z,87.50
2023-04-15T02:37:40.843Z,87.49
2023-04-15T02:40:13.619Z,87.37
2023-04-15T02:42:42.848Z,87.82
2023-04-15T02:45:12.746Z,88.08
2023-04-15T02:47:41.627Z,88.21
2023-04-15T02:50:12.709Z,88.15
2023-04-15T02:52:42.074Z,88.14
2023-04-15T02:55:10.364Z,88.36
2023-04-15T02:57:39.461Z,88.62
2023-04-15T03:00:09.868Z,88.73
2023-04-15T03:02:39.564Z,88.85
2023-04-15T03:05:11.745Z,88.81
2023-04-15T03:07:41.191Z,88.83
2023-04-15T03:10:10.616Z,88.83
2023-04-15T03:12:38.419Z,89.00
2023-04-15T03:15:06.933Z,89.00
2023-04-15T03:17:34.789Z,89.01
2023-04-15T03:20:06.592Z,89.13
2023-04-15T03:22:34.529Z,89.11
2023-04-15T03:25:02.360Z,89.11
2023-04-15T03:27:30.229Z,89.14
2023-04-15T03:29:57.963Z,89.09
2023-04-15T03:32:26.084Z,88.98
2023-04-15T03:34:53.920Z,89.00
2023-04-15T03:37:21.854Z,89.16
2023-04-15T03:39:49.755Z,89.14
2023-04-15T03:42:17.654Z,89.09
2023-04-15T03:44:45.456Z,89.11
2023-04-15T03:47:13.353Z,89.11
2023-04-15T03:49:41.586Z,89.20
2023-04-15T03:52:09.610Z,89.27
2023-04-15T03:54:37.459Z,89.31
2023-04-15T03:57:05.171Z,89.34
2023-04-15T03:59:32.920Z,89.44
2023-04-15T04:02:01.026Z,89.54
2023-04-15T04:04:29.089Z,89.54
2023-04-15T04:06:56.991Z,89.53
2023-04-15T04:09:24.861Z,89.53
2023-04-15T04:11:52.734Z,89.61
2023-04-15T04:14:20.690Z,89.65
2023-04-15T04:16:48.490Z,89.67
2023-04-15T04:19:19.666Z,89.71
2023-04-15T04:21:47.575Z,89.82
2023-04-15T04:24:15.736Z,89.83
2023-04-15T04:26:44.116Z,89.86
2023-04-15T04:29:11.979Z,89.96
2023-04-15T04:31:39.871Z,90.00
2023-04-15T04:34:08.017Z,90.01
2023-04-15T04:36:36.103Z,90.00
2023-04-15T04:39:04.199Z,90.08
2023-04-15T04:41:32.538Z,90.23
2023-04-15T04:44:00.509Z,90.26
2023-04-15T04:46:28.393Z,90.29
2023-04-15T04:48:56.245Z,90.36
2023-04-15T04:51:24.201Z,90.39
2023-04-15T04:53:52.069Z,90.41
2023-04-15T04:56:19.946Z,90.48
2023-04-15T04:58:47.800Z,90.51
2023-04-15T05:01:15.769Z,90.53
2023-04-15T05:03:43.850Z,90.51
2023-04-15T05:06:11.759Z,90.52
2023-04-15T05:08:41.015Z,90.58
2023-04-15T05:11:09.295Z,90.59
2023-04-15T05:13:38.913Z,90.55
2023-04-15T05:16:07.772Z,90.54
2023-04-15T05:18:35.771Z,90.56
2023-04-15T05:21:03.729Z,90.57
2023-04-15T05:23:31.720Z,90.64
2023-04-15T05:25:59.559Z,90.62
2023-04-15T05:28:27.631Z,90.66
2023-04-15T05:30:55.823Z,90.67
2023-04-15T05:33:23.772Z,90.70
2023-04-15T05:35:51.997Z,90.72
2023-04-15T05:38:19.811Z,90.76
2023-04-15T05:40:47.879Z,90.81
2023-04-15T05:43:15.848Z,90.80
2023-04-15T05:45:43.610Z,90.80
2023-04-15T05:48:11.399Z,90.80
2023-04-15T05:50:42.184Z,90.82
2023-04-15T05:53:10.096Z,90.80
2023-04-15T05:55:37.939Z,90.77
2023-04-15T05:58:05.808Z,90.82
2023-04-15T06:00:33.889Z,90.82
2023-04-15T06:03:01.909Z,90.85
2023-04-15T06:05:30.121Z,90.86
2023-04-15T06:07:57.990Z,90.88
2023-04-15T06:10:25.921Z,90.91
2023-04-15T06:12:54.359Z,90.96
2023-04-15T06:15:22.196Z,90.98
2023-04-15T06:17:50.136Z,90.97
2023-04-15T06:20:18.031Z,90.94
2023-04-15T06:22:45.827Z,90.99
2023-04-15T06:25:14.274Z,91.01
2023-04-15T06:27:42.250Z,91.04
2023-04-15T06:30:10.650Z,91.09
2023-04-15T06:32:38.559Z,91.15
2023-04-15T06:35:06.560Z,91.12
2023-04-15T06:37:34.424Z,91.11
2023-04-15T06:40:02.320Z,91.15
2023-04-15T06:42:30.352Z,91.20
2023-04-15T06:44:58.224Z,91.23
2023-04-15T06:47:26.303Z,91.24
2023-04-15T06:49:54.563Z,91.29
2023-04-15T06:52:22.432Z,91.27
2023-04-15T06:54:50.203Z,91.26
2023-04-15T06:57:17.959Z,91.28
2023-04-15T06:59:46.336Z,91.28
2023-04-15T07:02:14.951Z,91.25
2023-04-15T07:04:42.782Z,91.24
2023-04-15T07:07:10.604Z,91.29
2023-04-15T07:09:38.788Z,91.25
2023-04-15T07:12:06.643Z,91.17
2023-04-15T07:14:34.513Z,91.17
2023-04-15T07:17:02.925Z,91.18
2023-04-15T07:19:30.770Z,91.20
2023-04-15T07:21:58.546Z,91.23
2023-04-15T07:24:27.094Z,91.23
2023-04-15T07:26:59.416Z,91.23
2023-04-15T07:29:28.664Z,91.22
2023-04-15T07:31:57.347Z,91.24
2023-04-15T07:34:26.032Z,91.29
2023-04-15T07:36:53.922Z,91.25
2023-04-15T07:39:21.866Z,91.27
2023-04-15T07:41:49.957Z,91.25
2023-04-15T07:44:17.808Z,91.27
2023-04-15T07:46:45.674Z,91.24
2023-04-15T07:49:13.654Z,91.19
2023-04-15T07:51:42.527Z,91.16
2023-04-15T07:54:16.549Z,91.12
2023-04-15T07:56:44.407Z,91.07
2023-04-15T07:59:13.112Z,91.02
2023-04-15T08:01:41.059Z,90.95
2023-04-15T08:04:09.354Z,90.88
2023-04-15T08:06:40.108Z,90.82
2023-04-15T08:09:08.452Z,90.80
2023-04-15T08:11:36.853Z,90.76
2023-04-15T08:14:04.743Z,90.78
2023-04-15T08:16:33.400Z,90.81
2023-04-15T08:19:02.489Z,90.80
2023-04-15T08:21:41.264Z,90.73
2023-04-15T08:24:09.396Z,90.61
2023-04-15T08:26:38.481Z,90.50
2023-04-15T08:29:06.875Z,90.31
2023-04-15T08:31:34.805Z,90.16
2023-04-15T08:34:03.012Z,90.15
2023-04-15T08:36:32.576Z,90.08
2023-04-15T08:39:05.191Z,90.10
2023-04-15T08:41:41.752Z,90.07
2023-04-15T08:44:11.001Z,90.02
2023-04-15T08:46:40.101Z,89.76
2023-04-15T08:49:13.684Z,89.74
2023-04-15T08:51:43.408Z,89.79
2023-04-15T08:54:14.510Z,89.66
2023-04-15T08:56:43.156Z,89.55
2023-04-15T08:59:13.085Z,89.18
2023-04-15T09:01:41.683Z,88.98
2023-04-15T09:04:13.097Z,88.85
2023-04-15T09:06:41.835Z,88.64
2023-04-15T09:09:09.892Z,88.60
2023-04-15T09:11:37.765Z,88.69
2023-04-15T09:14:05.624Z,88.78
2023-04-15T09:17:01.070Z,88.72
2023-04-15T09:19:29.363Z,88.62
2023-04-15T09:22:00.152Z,88.65
2023-04-15T09:24:39.383Z,88.75
2023-04-15T09:27:07.750Z,88.59
2023-04-15T09:29:35.647Z,88.63
2023-04-15T09:32:11.502Z,88.81
2023-04-15T09:34:39.355Z,88.65
2023-04-15T09:37:08.061Z,88.64
2023-04-15T09:39:47.690Z,88.56
2023-04-15T09:42:17.685Z,88.43
2023-04-15T09:44:45.594Z,88.50
2023-04-15T09:47:28.271Z,88.53
2023-04-15T09:49:57.735Z,88.63
2023-04-15T09:52:26.130Z,88.81
2023-04-15T09:54:56.616Z,88.80
2023-04-15T09:57:25.065Z,88.71
2023-04-15T09:59:53.414Z,88.66
2023-04-15T10:02:22.078Z,88.73
2023-04-15T10:04:51.986Z,88.65
2023-04-15T10:07:22.511Z,88.70
2023-04-15T10:09:51.449Z,88.77
2023-04-15T10:12:20.117Z,88.89
2023-04-15T10:14:58.974Z,88.94
2023-04-15T10:17:31.640Z,88.99
2023-04-15T10:20:02.412Z,88.86
2023-04-15T10:22:31.563Z,88.74
2023-04-15T10:25:02.444Z,88.72
2023-04-15T10:27:31.281Z,88.77
2023-04-15T10:30:01.129Z,88.77
2023-04-15T10:32:29.919Z,88.82
2023-04-15T10:34:58.793Z,88.73
2023-04-15T10:37:37.690Z,88.62
2023-04-15T10:40:32.567Z,88.63
2023-04-15T10:43:02.442Z,88.62
2023-04-15T10:45:36.896Z,88.46
2023-04-15T10:48:07.720Z,88.26
2023-04-15T10:50:37.789Z,88.27
2023-04-15T10:53:05.885Z,88.24
2023-04-15T10:55:34.696Z,88.36
2023-04-15T10:58:03.279Z,88.30
2023-04-15T11:00:32.825Z,88.21
2023-04-15T11:03:08.485Z,88.26
2023-04-15T11:05:39.401Z,87.83
2023-04-15T11:08:08.897Z,87.55
2023-04-15T11:10:36.768Z,87.30
2023-04-15T11:13:16.849Z,87.17
2023-04-15T11:15:46.525Z,86.85
2023-04-15T11:18:30.265Z,86.72
2023-04-15T11:21:01.540Z,86.59
2023-04-15T11:23:38.146Z,86.10
2023-04-15T11:26:15.466Z,85.97
2023-04-15T11:28:45.420Z,85.60
2023-04-15T11:31:18.428Z,85.64
2023-04-15T11:34:01.581Z,85.62
2023-04-15T11:36:32.370Z,85.82
2023-04-15T11:39:00.971Z,85.57
2023-04-15T11:41:29.696Z,85.63
2023-04-15T11:43:57.508Z,85.74
2023-04-15T11:46:32.224Z,85.57
2023-04-15T11:49:00.464Z,84.90
2023-04-15T11:51:33.971Z,84.28
2023-04-15T11:54:02.146Z,83.70
2023-04-15T11:56:31.343Z,83.93
2023-04-15T11:59:00.171Z,83.47
2023-04-15T12:01:32.591Z,83.14
2023-04-15T12:04:01.883Z,82.93
2023-04-15T12:06:36.987Z,82.47
2023-04-15T12:09:12.099Z,82.55
2023-04-15T12:11:50.032Z,82.40
2023-04-15T12:14:30.844Z,82.45
2023-04-15T12:17:05.025Z,82.36
2023-04-15T12:19:38.051Z,82.87
2023-04-15T12:22:11.067Z,82.92
2023-04-15T12:24:40.022Z,82.29
2023-04-15T12:27:11.391Z,82.46
2023-04-15T12:29:42.138Z,82.12
2023-04-15T12:32:12.607Z,81.42
2023-04-15T12:34:42.114Z,81.60
2023-04-15T12:37:13.368Z,80.21
2023-04-15T12:39:43.527Z,79.85
2023-04-15T12:42:12.465Z,79.45
2023-04-15T12:44:40.473Z,79.56
2023-04-15T12:47:09.580Z,78.62
2023-04-15T12:49:38.422Z,78.78
2023-04-15T12:52:06.900Z,78.90
2023-04-15T12:54:36.258Z,78.85
2023-04-15T12:57:06.760Z,79.26
2023-04-15T12:59:36.638Z,79.75
2023-04-15T13:02:04.726Z,80.14
2023-04-15T13:04:33.058Z,80.70
2023-04-15T13:07:02.318Z,81.05
2023-04-15T13:09:30.373Z,80.80
2023-04-15T13:11:58.532Z,80.52
2023-04-15T13:14:27.234Z,80.13
2023-04-15T13:16:55.188Z,79.80
2023-04-15T13:19:23.075Z,78.76
2023-04-15T13:21:51.184Z,78.97
2023-04-15T13:24:18.986Z,79.61
2023-04-15T13:26:48.525Z,78.71
2023-04-15T13:29:17.527Z,78.11
2023-04-15T13:31:45.632Z,77.42
2023-04-15T13:34:13.622Z,78.07
2023-04-15T13:36:42.005Z,78.18
2023-04-15T13:39:09.862Z,77.84
2023-04-15T13:41:37.735Z,78.11
2023-04-15T13:44:06.498Z,76.92
2023-04-15T13:46:34.611Z,76.14
2023-04-15T13:49:02.558Z,75.38
2023-04-15T13:51:31.235Z,75.75
2023-04-15T13:53:59.724Z,77.32
2023-04-15T13:56:27.689Z,77.66
2023-04-15T13:58:59.076Z,77.17
2023-04-15T14:01:27.526Z,75.98
2023-04-15T14:03:56.304Z,75.58
2023-04-15T14:06:24.859Z,75.21
2023-04-15T14:08:53.456Z,75.39
2023-04-15T14:11:21.620Z,76.15
2023-04-15T14:13:49.745Z,76.37
2023-04-15T14:16:17.555Z,75.70
2023-04-15T14:18:48.504Z,75.14
2023-04-15T14:21:16.885Z,74.17
2023-04-15T14:23:44.749Z,74.15
2023-04-15T14:26:14.066Z,74.44
2023-04-15T14:28:43.044Z,74.35
2023-04-15T14:31:11.218Z,74.78
2023-04-15T14:33:39.086Z,74.77
2023-04-15T14:36:08.111Z,74.83
2023-04-15T14:38:40.263Z,74.06
2023-04-15T14:41:09.019Z,73.66
2023-04-15T14:43:36.982Z,73.42
2023-04-15T14:46:05.091Z,73.58
2023-04-15T14:48:33.250Z,73.59
2023-04-15T14:51:01.315Z,72.42
2023-04-15T14:53:29.481Z,72.60
2023-04-15T14:55:57.332Z,71.68
2023-04-15T14:58:25.467Z,70.97
2023-04-15T15:00:53.402Z,70.59
2023-04-15T15:03:21.376Z,70.66
2023-04-15T15:05:49.327Z,70.57
2023-04-15T15:08:17.306Z,71.06
2023-04-15T15:10:49.771Z,71.04
2023-04-15T15:13:19.103Z,71.13
2023-04-15T15:15:49.454Z,71.43
2023-04-15T15:18:19.419Z,71.55
2023-04-15T15:20:47.858Z,71.54
2023-04-15T15:23:16.158Z,71.95
2023-04-15T15:25:45.967Z,72.49
2023-04-15T15:28:13.856Z,72.42
2023-04-15T15:30:41.704Z,72.90
2023-04-15T15:33:09.570Z,72.83
2023-04-15T15:35:37.539Z,71.20
2023-04-15T15:38:06.439Z,71.23
2023-04-15T15:40:34.239Z,71.37
2023-04-15T15:43:02.013Z,71.98
2023-04-15T15:45:30.640Z,72.60
2023-04-15T15:47:59.391Z,72.94
2023-04-15T15:50:27.596Z,73.61
2023-04-15T15:52:55.693Z,74.32
2023-04-15T15:55:25.379Z,74.49
2023-04-15T15:57:54.515Z,74.87
2023-04-15T16:00:23.382Z,74.94
2023-04-15T16:03:06.895Z,75.33
2023-04-15T16:05:36.184Z,75.66
2023-04-15T16:08:04.566Z,75.59
2023-04-15T16:10:32.538Z,75.29
2023-04-15T16:13:00.614Z,74.99
2023-04-15T16:15:28.683Z,75.08
2023-04-15T16:17:56.824Z,74.59
2023-04-15T16:20:24.693Z,74.49
2023-04-15T16:22:52.533Z,73.86
2023-04-15T16:25:20.581Z,74.07
2023-04-15T16:28:00.799Z,73.84
2023-04-15T16:30:37.024Z,72.59
2023-04-15T16:33:08.528Z,71.80
2023-04-15T16:35:36.379Z,71.15
2023-04-15T16:38:04.244Z,71.84
2023-04-15T16:40:33.060Z,72.02
2023-04-15T16:43:00.908Z,72.21
2023-04-15T16:45:28.767Z,72.43
2023-04-15T16:47:57.073Z,72.31
2023-04-15T16:50:25.216Z,72.57
2023-04-15T16:52:53.203Z,72.85
2023-04-15T16:55:21.169Z,73.23
2023-04-15T16:58:01.506Z,73.46
2023-04-15T17:00:32.153Z,73.82
2023-04-15T17:03:03.768Z,74.25
2023-04-15T17:05:31.834Z,74.64
2023-04-15T17:07:59.737Z,74.96
2023-04-15T17:10:28.407Z,75.33
2023-04-15T17:12:57.210Z,75.70
2023-04-15T17:15:25.548Z,76.02
2023-04-15T17:17:53.738Z,76.72
2023-04-15T17:20:22.090Z,77.08
2023-04-15T17:22:50.221Z,77.10
2023-04-15T17:25:18.575Z,77.12
2023-04-15T17:27:46.554Z,77.41
2023-04-15T17:30:14.412Z,77.91
2023-04-15T17:32:42.359Z,78.07
2023-04-15T17:35:10.742Z,78.37
2023-04-15T17:37:39.041Z,78.51
2023-04-15T17:40:08.761Z,78.80
2023-04-15T17:42:36.738Z,79.21
2023-04-15T17:45:05.057Z,79.79
2023-04-15T17:47:32.941Z,79.86
2023-04-15T17:50:01.139Z,80.09
2023-04-15T17:52:29.009Z,80.11
2023-04-15T17:54:57.073Z,80.42
2023-04-15T17:57:25.442Z,80.57
2023-04-15T17:59:53.235Z,81.04
2023-04-15T18:02:21.145Z,81.37
2023-04-15T18:04:49.508Z,81.53
2023-04-15T18:07:17.455Z,81.57
2023-04-15T18:09:46.018Z,81.73
2023-04-15T18:12:14.074Z,81.65
2023-04-15T18:14:41.990Z,81.76
2023-04-15T18:17:09.900Z,81.79
2023-04-15T18:19:37.766Z,81.89
2023-04-15T18:22:07.074Z,81.86
2023-04-15T18:24:35.427Z,82.00
2023-04-15T18:27:03.864Z,82.01
2023-04-15T18:29:31.791Z,81.97
2023-04-15T18:32:00.487Z,81.94
2023-04-15T18:34:29.717Z,81.79
2023-04-15T18:36:58.508Z,81.87
2023-04-15T18:39:27.474Z,82.09
2023-04-15T18:41:56.420Z,82.39
2023-04-15T18:44:24.521Z,82.66
2023-04-15T18:46:52.393Z,82.85
2023-04-15T19:03:19.635Z,82.68
2023-04-15T19:05:47.766Z,82.63
2023-04-15T19:08:15.513Z,82.86
2023-04-15T19:10:43.264Z,83.17
2023-04-15T19:13:11.056Z,83.33
2023-04-15T19:15:38.699Z,83.59
2023-04-15T19:18:10.476Z,83.77
2023-04-15T19:20:39.986Z,84.11
2023-04-15T19:23:08.360Z,84.16
2023-04-15T19:25:37.047Z,84.50
2023-04-15T19:28:05.034Z,84.66
2023-04-15T19:30:33.106Z,84.92
2023-04-15T19:33:00.820Z,84.98
2023-04-15T19:35:28.609Z,85.03
2023-04-15T19:37:56.370Z,85.14
2023-04-15T19:40:24.230Z,85.16
2023-04-15T19:42:51.900Z,85.33
2023-04-15T19:45:19.910Z,85.34
2023-04-15T19:47:48.074Z,85.19
2023-04-15T19:50:41.377Z,85.24
2023-04-15T19:53:14.333Z,85.44
2023-04-15T19:55:45.450Z,85.37
2023-04-15T19:58:14.586Z,85.38
2023-04-15T20:00:42.516Z,85.40
2023-04-15T20:03:10.819Z,85.30
2023-04-15T20:05:38.710Z,85.08
2023-04-15T20:08:06.600Z,85.15
2023-04-15T20:10:35.393Z,85.23
2023-04-15T20:13:03.156Z,85.11
2023-04-15T20:15:30.873Z,84.90
2023-04-15T20:18:01.871Z,84.88
2023-04-15T20:20:31.653Z,84.85
2023-04-15T20:22:59.292Z,84.93
2023-04-15T20:25:27.040Z,84.79
2023-04-15T20:27:54.706Z,84.66
2023-04-15T20:30:22.507Z,84.76
2023-04-15T20:32:50.362Z,84.71
2023-04-15T20:35:18.171Z,84.59
2023-04-15T20:37:45.961Z,84.54
2023-04-15T20:40:14.511Z,84.63
2023-04-15T20:42:43.813Z,84.75
2023-04-15T20:45:11.770Z,84.64
2023-04-15T20:47:39.451Z,84.69
2023-04-15T20:50:08.170Z,84.93
2023-04-15T20:52:36.268Z,85.19
2023-04-15T20:55:04.733Z,85.28
2023-04-15T20:57:32.362Z,85.48
2023-04-15T21:00:00.040Z,85.52
2023-04-15T21:02:27.913Z,85.59
2023-04-15T21:04:55.999Z,85.45
2023-04-15T21:07:23.664Z,85.56
2023-04-15T21:09:51.499Z,85.40
2023-04-15T21:12:19.193Z,85.47
2023-04-15T21:14:46.937Z,85.59
2023-04-15T21:17:14.742Z,85.69
2023-04-15T21:19:42.917Z,85.82
2023-04-15T21:22:10.919Z,85.76
2023-04-15T21:24:38.728Z,85.73
2023-04-15T21:27:06.451Z,85.85
2023-04-15T21:29:34.256Z,85.73
2023-04-15T21:32:02.052Z,85.72
2023-04-15T21:34:30.189Z,85.62
2023-04-15T21:36:57.830Z,85.53
2023-04-15T21:39:25.906Z,85.49
2023-04-15T21:41:53.633Z,85.64
2023-04-15T21:44:21.366Z,85.62
2023-04-15T21:46:49.137Z,85.59
2023-04-15T21:49:17.158Z,85.59
2023-04-15T21:51:45.779Z,85.61
2023-04-15T21:54:13.803Z,85.60
2023-04-15T21:56:42.623Z,85.58
2023-04-15T21:59:10.614Z,85.47
2023-04-15T22:01:38.458Z,85.37
2023-04-15T22:04:07.707Z,85.39
2023-04-15T22:06:35.620Z,85.49
2023-04-15T22:09:03.486Z,85.48
2023-04-15T22:11:32.300Z,85.41
2023-04-15T22:13:59.921Z,85.42
2023-04-15T22:16:28.187Z,85.54
2023-04-15T22:18:56.206Z,85.58
2023-04-15T22:21:24.061Z,85.58
2023-04-15T22:23:52.241Z,85.61
2023-04-15T22:26:19.910Z,85.56
2023-04-15T22:28:47.583Z,85.64
2023-04-15T22:31:15.425Z,85.72
2023-04-15T22:33:43.166Z,85.71
2023-04-15T22:36:11.234Z,85.76
2023-04-15T22:38:38.902Z,85.71
2023-04-15T22:41:06.756Z,85.78
2023-04-15T22:43:34.417Z,85.83
2023-04-15T22:46:02.079Z,85.90
2023-04-15T22:48:29.948Z,85.83
2023-04-15T22:50:57.564Z,85.85
2023-04-15T22:53:25.359Z,85.96
2023-04-15T22:55:54.038Z,85.83
2023-04-15T22:58:21.695Z,85.83
2023-04-15T23:00:50.289Z,85.94
2023-04-15T23:03:18.089Z,85.87
2023-04-15T23:05:46.212Z,85.80
2023-04-15T23:08:13.869Z,85.83
2023-04-15T23:10:41.625Z,85.84
2023-04-15T23:13:09.259Z,86.01
2023-04-15T23:15:37.095Z,85.92
2023-04-15T23:18:04.882Z,85.90
2023-04-15T23:20:33.931Z,85.87
2023-04-15T23:23:01.686Z,85.87
2023-04-15T23:25:29.379Z,85.77
2023-04-15T23:27:57.053Z,85.84
2023-04-15T23:30:24.781Z,85.88
2023-04-15T23:32:52.633Z,85.86
2023-04-15T23:35:21.077Z,85.94
2023-04-15T23:37:48.697Z,85.90
2023-04-15T23:40:16.555Z,85.94
2023-04-15T23:42:44.520Z,85.98
2023-04-15T23:45:12.687Z,86.03
2023-04-15T23:47:40.405Z,86.11
2023-04-15T23:50:09.070Z,86.13
2023-04-15T23:52:37.063Z,86.07
2023-04-15T23:55:05.049Z,86.07
2023-04-15T23:57:32.721Z,86.09
